createdAt,value
2017-07-23T00:00:31.732Z,14.07
2017-07-23T00:01:42.005Z,14.07
2017-07-23T00:02:52.273Z,14.01
2017-07-23T00:04:02.542Z,13.98
2017-07-23T00:05:12.816Z,13.97
2017-07-23T00:06:22.779Z,13.82
2017-07-23T00:07:33.053Z,13.86
2017-07-23T00:08:43.321Z,13.79
2017-07-23T00:09:53.585Z,13.79
2017-07-23T00:11:03.544Z,13.86
2017-07-23T00:12:13.823Z,13.86
2017-07-23T00:13:24.095Z,13.7
2017-07-23T00:14:34.365Z,13.64
2017-07-23T00:15:44.629Z,13.71
2017-07-23T00:16:54.902Z,13.67
2017-07-23T00:18:05.193Z,13.67
2017-07-23T00:19:15.153Z,13.55
2017-07-23T00:20:25.421Z,13.62
2017-07-23T00:21:35.689Z,13.58
2017-07-23T00:22:45.965Z,13.47
2017-07-23T00:23:56.239Z,13.46
2017-07-23T00:25:06.509Z,13.49
2017-07-23T00:26:16.461Z,13.49
2017-07-23T00:27:26.729Z,13.45
2017-07-23T00:28:36.371Z,13.45
2017-07-23T00:29:46.642Z,13.46
2017-07-23T00:30:56.910Z,13.46
2017-07-23T00:32:07.199Z,13.57
2017-07-23T00:33:17.160Z,13.54
2017-07-23T00:34:27.434Z,13.54
2017-07-23T00:35:37.746Z,13.58
2017-07-23T00:36:47.397Z,13.65
2017-07-23T00:37:57.662Z,13.73
2017-07-23T00:39:07.926Z,13.8
2017-07-23T00:40:18.193Z,13.87
2017-07-23T00:41:28.478Z,13.87
2017-07-23T00:42:38.746Z,14
2017-07-23T00:43:48.715Z,13.86
2017-07-23T00:44:58.983Z,13.89
2017-07-23T00:46:08.940Z,13.98
2017-07-23T00:47:19.212Z,13.93
2017-07-23T00:48:29.476Z,14
2017-07-23T00:49:39.740Z,13.97
2017-07-23T00:50:49.697Z,13.94
2017-07-23T00:51:59.962Z,13.93
2017-07-23T00:53:10.235Z,13.98
2017-07-23T00:54:20.517Z,14.03
2017-07-23T00:55:30.469Z,13.94
2017-07-23T00:56:40.738Z,14
2017-07-23T00:57:51.007Z,13.87
2017-07-23T00:59:01.281Z,13.93
2017-07-23T01:00:11.555Z,13.83
2017-07-23T01:01:21.821Z,13.82
2017-07-23T01:02:32.093Z,13.83
2017-07-23T01:03:42.048Z,13.76
2017-07-23T01:04:52.315Z,13.8
2017-07-23T01:06:02.270Z,13.78
2017-07-23T01:07:12.223Z,13.62
2017-07-23T01:08:22.172Z,13.64
2017-07-23T01:09:32.438Z,13.6
2017-07-23T01:10:42.401Z,13.55
2017-07-23T01:11:52.381Z,13.54
2017-07-23T01:13:02.652Z,13.42
2017-07-23T01:14:12.293Z,13.31
2017-07-23T01:15:22.560Z,13.31
2017-07-23T01:16:32.823Z,13.21
2017-07-23T01:17:43.088Z,13.19
2017-07-23T01:18:53.354Z,13.09
2017-07-23T01:20:03.306Z,13.05
2017-07-23T01:21:13.264Z,12.98
2017-07-23T01:22:23.216Z,12.87
2017-07-23T01:23:33.485Z,12.9
2017-07-23T01:24:43.757Z,12.8
2017-07-23T01:25:54.027Z,12.73
2017-07-23T01:27:04.301Z,12.78
2017-07-23T01:28:14.255Z,12.75
2017-07-23T01:29:24.209Z,12.66
2017-07-23T01:30:34.517Z,12.62
2017-07-23T01:31:44.472Z,12.51
2017-07-23T01:32:54.745Z,12.5
2017-07-23T01:34:05.013Z,12.44
2017-07-23T01:35:14.655Z,12.47
2017-07-23T01:36:24.928Z,12.45
2017-07-23T01:37:34.879Z,12.35
2017-07-23T01:38:45.154Z,12.39
2017-07-23T01:39:55.428Z,12.37
2017-07-23T01:41:05.698Z,12.37
2017-07-23T01:42:15.979Z,12.39
2017-07-23T01:43:26.244Z,12.39
2017-07-23T01:44:36.511Z,12.3
2017-07-23T01:45:46.789Z,12.28
2017-07-23T01:46:57.056Z,12.23
2017-07-23T01:48:07.324Z,12.23
2017-07-23T01:49:17.285Z,12.18
2017-07-23T01:50:27.552Z,12.15
2017-07-23T01:51:37.507Z,12.12
2017-07-23T01:52:47.785Z,12.14
2017-07-23T01:53:58.057Z,12.25
2017-07-23T01:55:07.697Z,12.17
2017-07-23T01:56:17.967Z,12.21
2017-07-23T01:57:28.236Z,12.18
2017-07-23T01:58:38.502Z,12.12
2017-07-23T01:59:48.773Z,12
2017-07-23T02:00:59.040Z,11.95
2017-07-23T02:02:09.308Z,11.99
2017-07-23T02:03:19.577Z,11.93
2017-07-23T02:04:29.529Z,12.02
2017-07-23T02:05:39.942Z,11.96
2017-07-23T02:06:50.209Z,11.93
2017-07-23T02:08:00.163Z,11.95
2017-07-23T02:09:09.805Z,11.93
2017-07-23T02:10:20.079Z,11.86
2017-07-23T02:11:30.366Z,11.78
2017-07-23T02:12:40.638Z,11.81
2017-07-23T02:13:50.913Z,11.78
2017-07-23T02:15:01.180Z,11.8
2017-07-23T02:16:11.151Z,11.74
2017-07-23T02:17:24.780Z,11.78
2017-07-23T02:18:35.050Z,11.78
2017-07-23T02:19:45.322Z,11.86
2017-07-23T02:20:55.584Z,11.85
2017-07-23T02:22:05.532Z,11.96
2017-07-23T02:23:15.786Z,12
2017-07-23T02:24:26.055Z,11.97
2017-07-23T02:25:36.010Z,11.96
2017-07-23T02:26:46.274Z,12.05
2017-07-23T02:27:56.540Z,12
2017-07-23T02:29:06.805Z,11.97
2017-07-23T02:30:17.073Z,11.99
2017-07-23T02:31:27.343Z,11.95
2017-07-23T02:32:37.609Z,11.89
2017-07-23T02:33:47.884Z,11.88
2017-07-23T02:34:58.154Z,11.91
2017-07-23T02:36:08.114Z,11.95
2017-07-23T02:37:18.381Z,11.85
2017-07-23T02:38:28.655Z,11.91
2017-07-23T02:39:38.930Z,11.95
2017-07-23T02:40:49.204Z,11.97
2017-07-23T02:41:59.481Z,12.02
2017-07-23T02:43:09.757Z,12.08
2017-07-23T02:44:20.028Z,12.15
2017-07-23T02:45:30.299Z,12.17
2017-07-23T02:46:40.574Z,12.29
2017-07-23T02:47:50.852Z,12.29
2017-07-23T02:49:01.120Z,12.36
2017-07-23T02:50:11.094Z,12.3
2017-07-23T02:51:21.070Z,12.3
2017-07-23T02:52:31.345Z,12.39
2017-07-23T02:53:41.306Z,12.36
2017-07-23T02:54:51.261Z,12.37
2017-07-23T02:56:01.535Z,12.33
2017-07-23T02:57:11.492Z,12.29
2017-07-23T02:58:21.763Z,12.36
2017-07-23T02:59:32.044Z,12.39
2017-07-23T03:00:42.313Z,12.37
2017-07-23T03:01:52.264Z,12.35
2017-07-23T03:03:02.532Z,12.37
2017-07-23T03:04:12.798Z,12.3
2017-07-23T03:05:23.069Z,12.33
2017-07-23T03:06:33.023Z,12.32
2017-07-23T03:07:42.989Z,12.36
2017-07-23T03:08:53.258Z,12.33
2017-07-23T03:10:03.530Z,12.3
2017-07-23T03:11:13.801Z,12.32
2017-07-23T03:12:23.755Z,12.35
2017-07-23T03:13:34.036Z,12.39
2017-07-23T03:14:44.303Z,12.37
2017-07-23T03:15:54.261Z,12.33
2017-07-23T03:17:04.569Z,12.35
2017-07-23T03:18:14.836Z,12.39
2017-07-23T03:19:25.110Z,12.37
2017-07-23T03:20:35.063Z,12.37
2017-07-23T03:21:45.334Z,12.35
2017-07-23T03:22:55.600Z,12.35
2017-07-23T03:24:05.868Z,12.28
2017-07-23T03:25:16.137Z,12.28
2017-07-23T03:26:26.404Z,12.15
2017-07-23T03:27:36.674Z,12.28
2017-07-23T03:28:46.938Z,12.14
2017-07-23T03:29:57.202Z,12.15
2017-07-23T03:31:07.169Z,12.14
2017-07-23T03:32:17.444Z,12.12
2017-07-23T03:33:27.721Z,12.12
2017-07-23T03:34:37.681Z,12.07
2017-07-23T03:35:47.951Z,12
2017-07-23T03:36:58.215Z,11.99
2017-07-23T03:38:08.166Z,11.95
2017-07-23T03:39:18.435Z,11.96
2017-07-23T03:40:28.706Z,11.96
2017-07-23T03:41:38.990Z,11.96
2017-07-23T03:42:48.942Z,11.93
2017-07-23T03:43:59.211Z,12
2017-07-23T03:45:09.476Z,11.96
2017-07-23T03:46:19.746Z,11.97
2017-07-23T03:47:30.022Z,11.96
2017-07-23T03:48:39.975Z,12.11
2017-07-23T03:49:50.242Z,12.11
2017-07-23T03:51:00.508Z,12.14
2017-07-23T03:52:10.775Z,12.17
2017-07-23T03:53:21.043Z,12.18
2017-07-23T03:54:30.993Z,12.25
2017-07-23T03:55:41.258Z,12.2
2017-07-23T03:56:51.521Z,12.28
2017-07-23T03:58:01.792Z,12.3
2017-07-23T03:59:12.063Z,12.25
2017-07-23T04:00:22.335Z,12.39
2017-07-23T04:01:32.615Z,12.37
2017-07-23T04:02:42.884Z,12.4
2017-07-23T04:03:53.152Z,12.43
2017-07-23T04:05:03.111Z,12.57
2017-07-23T04:06:13.383Z,12.62
2017-07-23T04:07:23.648Z,12.68
2017-07-23T04:08:33.911Z,12.75
2017-07-23T04:09:44.180Z,12.86
2017-07-23T04:10:54.135Z,12.81
2017-07-23T04:12:04.403Z,12.93
2017-07-23T04:13:14.695Z,12.91
2017-07-23T04:14:24.339Z,13.08
2017-07-23T04:15:34.295Z,13.16
2017-07-23T04:16:44.566Z,13.19
2017-07-23T04:17:54.833Z,13.24
2017-07-23T04:19:05.107Z,13.24
2017-07-23T04:20:15.380Z,13.23
2017-07-23T04:21:25.339Z,13.33
2017-07-23T04:22:35.297Z,13.45
2017-07-23T04:23:45.564Z,13.4
2017-07-23T04:24:55.517Z,13.5
2017-07-23T04:26:05.784Z,13.58
2017-07-23T04:27:16.051Z,13.5
2017-07-23T04:28:26.317Z,13.67
2017-07-23T04:29:36.592Z,13.68
2017-07-23T04:30:46.861Z,13.7
2017-07-23T04:31:57.131Z,13.73
2017-07-23T04:33:07.400Z,13.75
2017-07-23T04:34:17.353Z,13.78
2017-07-23T04:35:27.624Z,13.86
2017-07-23T04:36:37.900Z,13.82
2017-07-23T04:37:47.856Z,13.8
2017-07-23T04:38:58.124Z,13.78
2017-07-23T04:40:08.079Z,13.85
2017-07-23T04:41:18.349Z,13.85
2017-07-23T04:42:28.613Z,13.98
2017-07-23T04:43:38.881Z,13.97
2017-07-23T04:44:48.845Z,14.08
2017-07-23T04:45:59.117Z,14.05
2017-07-23T04:47:09.390Z,14.07
2017-07-23T04:48:19.352Z,14.07
2017-07-23T04:49:29.619Z,14.18
2017-07-23T04:50:39.883Z,14.2
2017-07-23T04:51:49.840Z,14.22
2017-07-23T04:52:59.796Z,14.23
2017-07-23T04:54:09.752Z,14.33
2017-07-23T04:55:20.022Z,14.44
2017-07-23T04:56:30.302Z,14.37
2017-07-23T04:57:40.584Z,14.36
2017-07-23T04:58:50.853Z,14.61
2017-07-23T05:00:01.130Z,14.58
2017-07-23T05:01:11.106Z,14.71
2017-07-23T05:02:21.374Z,14.67
2017-07-23T05:03:31.647Z,14.66
2017-07-23T05:04:41.916Z,14.73
2017-07-23T05:05:52.185Z,14.7
2017-07-23T05:07:02.463Z,14.81
2017-07-23T05:08:12.734Z,14.79
2017-07-23T05:09:23.011Z,14.87
2017-07-23T05:10:33.304Z,14.9
2017-07-23T05:11:43.574Z,14.92
2017-07-23T05:12:53.531Z,14.94
2017-07-23T05:14:03.808Z,15.04
2017-07-23T05:15:13.766Z,14.94
2017-07-23T05:16:24.038Z,15.11
2017-07-23T05:17:34.319Z,15.18
2017-07-23T05:18:44.602Z,15.14
2017-07-23T05:19:54.874Z,15.26
2017-07-23T05:21:05.148Z,15.32
2017-07-23T05:22:15.443Z,15.33
2017-07-23T05:23:25.396Z,15.32
2017-07-23T05:24:35.354Z,15.44
2017-07-23T05:25:45.622Z,15.47
2017-07-23T05:26:55.893Z,15.36
2017-07-23T05:28:05.850Z,15.47
2017-07-23T05:29:16.120Z,15.52
2017-07-23T05:30:26.399Z,15.59
2017-07-23T05:31:36.671Z,15.6
2017-07-23T05:32:46.943Z,15.72
2017-07-23T05:33:57.218Z,15.78
2017-07-23T05:35:07.194Z,15.85
2017-07-23T05:36:17.152Z,15.85
2017-07-23T05:37:27.421Z,15.85
2017-07-23T05:38:37.691Z,15.81
2017-07-23T05:39:47.645Z,15.76
2017-07-23T05:40:57.917Z,15.84
2017-07-23T05:42:08.194Z,15.83
2017-07-23T05:43:18.473Z,15.83
2017-07-23T05:44:28.746Z,15.84
2017-07-23T05:45:39.026Z,16
2017-07-23T05:46:49.301Z,15.9
2017-07-23T05:47:59.261Z,15.88
2017-07-23T05:49:09.544Z,16.03
2017-07-23T05:50:19.822Z,16
2017-07-23T05:51:29.461Z,16.12
2017-07-23T05:52:39.734Z,16.12
2017-07-23T05:53:50.011Z,16.18
2017-07-23T05:55:00.284Z,16.26
2017-07-23T05:56:10.567Z,16.28
2017-07-23T05:57:20.530Z,16.26
2017-07-23T05:58:30.803Z,16.4
2017-07-23T05:59:40.769Z,16.44
2017-07-23T06:00:51.040Z,16.46
2017-07-23T06:02:01.326Z,16.46
2017-07-23T06:03:11.603Z,16.55
2017-07-23T06:04:21.559Z,16.59
2017-07-23T06:05:31.831Z,16.62
2017-07-23T06:06:42.116Z,16.66
2017-07-23T06:07:52.384Z,16.57
2017-07-23T06:09:02.346Z,16.57
2017-07-23T06:10:12.618Z,16.49
2017-07-23T06:11:22.905Z,16.51
2017-07-23T06:12:33.174Z,16.46
2017-07-23T06:13:43.444Z,16.5
2017-07-23T06:14:53.717Z,16.46
2017-07-23T06:16:03.989Z,16.39
2017-07-23T06:17:13.941Z,16.31
2017-07-23T06:18:24.209Z,16.28
2017-07-23T06:19:34.482Z,16.13
2017-07-23T06:20:44.756Z,16.17
2017-07-23T06:21:55.032Z,16.22
2017-07-23T06:23:04.993Z,16.16
2017-07-23T06:24:15.269Z,16.25
2017-07-23T06:25:25.235Z,16.26
2017-07-23T06:26:35.529Z,16.37
2017-07-23T06:27:45.812Z,16.4
2017-07-23T06:28:56.082Z,16.39
2017-07-23T06:30:06.045Z,16.43
2017-07-23T06:31:16.000Z,16.44
2017-07-23T06:32:26.272Z,16.46
2017-07-23T06:33:36.543Z,16.61
2017-07-23T06:34:46.824Z,16.55
2017-07-23T06:35:57.148Z,16.58
2017-07-23T06:37:06.796Z,16.61
2017-07-23T06:38:17.067Z,16.65
2017-07-23T06:39:27.028Z,16.72
2017-07-23T06:40:37.303Z,16.72
2017-07-23T06:41:47.574Z,16.82
2017-07-23T06:42:57.848Z,16.86
2017-07-23T06:44:08.127Z,16.97
2017-07-23T06:45:18.085Z,17.01
2017-07-23T06:46:28.045Z,17.16
2017-07-23T06:47:38.328Z,17.12
2017-07-23T06:48:48.613Z,17.17
2017-07-23T06:49:58.881Z,17.17
2017-07-23T06:51:09.151Z,17.22
2017-07-23T06:52:19.425Z,17.34
2017-07-23T06:53:29.393Z,17.3
2017-07-23T06:54:39.666Z,17.38
2017-07-23T06:55:49.622Z,17.3
2017-07-23T06:56:59.592Z,17.42
2017-07-23T06:58:09.864Z,17.24
2017-07-23T06:59:20.139Z,17.42
2017-07-23T07:00:30.411Z,17.41
2017-07-23T07:01:40.683Z,17.39
2017-07-23T07:02:50.954Z,17.41
2017-07-23T07:04:01.225Z,17.47
2017-07-23T07:05:11.498Z,17.53
2017-07-23T07:06:21.771Z,17.5
2017-07-23T07:07:32.045Z,17.59
2017-07-23T07:08:42.003Z,17.65
2017-07-23T07:09:52.281Z,17.75
2017-07-23T07:11:02.563Z,17.71
2017-07-23T07:12:12.521Z,17.8
2017-07-23T07:13:22.796Z,17.86
2017-07-23T07:14:33.069Z,17.94
2017-07-23T07:15:43.340Z,18.03
2017-07-23T07:16:53.617Z,18.11
2017-07-23T07:18:03.583Z,18.21
2017-07-23T07:19:13.861Z,18.3
2017-07-23T07:20:24.133Z,18.42
2017-07-23T07:21:34.402Z,18.3
2017-07-23T07:22:44.680Z,18.31
2017-07-23T07:23:54.952Z,18.3
2017-07-23T07:25:04.910Z,18.31
2017-07-23T07:26:15.186Z,18.31
2017-07-23T07:27:25.464Z,18.3
2017-07-23T07:28:35.423Z,18.36
2017-07-23T07:29:45.694Z,18.48
2017-07-23T07:30:55.972Z,18.45
2017-07-23T07:32:06.243Z,18.46
2017-07-23T07:33:16.514Z,18.58
2017-07-23T07:34:26.789Z,18.52
2017-07-23T07:35:37.068Z,18.73
2017-07-23T07:36:47.349Z,18.68
2017-07-23T07:37:57.625Z,18.64
2017-07-23T07:39:07.589Z,18.67
2017-07-23T07:40:17.550Z,18.61
2017-07-23T07:41:27.878Z,18.67
2017-07-23T07:42:38.155Z,18.81
2017-07-23T07:43:48.432Z,18.79
2017-07-23T07:44:58.709Z,18.85
2017-07-23T07:46:08.360Z,19
2017-07-23T07:47:18.322Z,18.98
2017-07-23T07:48:28.599Z,19.15
2017-07-23T07:49:38.872Z,19.15
2017-07-23T07:50:48.830Z,19.2
2017-07-23T07:51:59.102Z,19.23
2017-07-23T07:53:09.070Z,19.24
2017-07-23T07:54:18.720Z,19.37
2017-07-23T07:55:28.991Z,19.38
2017-07-23T07:56:39.272Z,19.34
2017-07-23T07:57:49.563Z,19.29
2017-07-23T07:58:59.841Z,19.37
2017-07-23T08:00:10.113Z,19.47
2017-07-23T08:01:20.080Z,19.39
2017-07-23T08:02:30.360Z,19.44
2017-07-23T08:03:40.641Z,19.47
2017-07-23T08:04:50.912Z,19.38
2017-07-23T08:06:00.876Z,19.24
2017-07-23T08:07:11.154Z,19.37
2017-07-23T08:08:21.112Z,19.47
2017-07-23T08:09:30.769Z,19.57
2017-07-23T08:10:40.422Z,19.57
2017-07-23T08:11:50.395Z,19.64
2017-07-23T08:13:00.670Z,19.74
2017-07-23T08:14:10.973Z,19.79
2017-07-23T08:15:20.930Z,19.87
2017-07-23T08:16:31.205Z,19.92
2017-07-23T08:17:41.478Z,19.99
2017-07-23T08:18:51.753Z,20.02
2017-07-23T08:20:01.399Z,20.03
2017-07-23T08:21:11.672Z,20.11
2017-07-23T08:22:21.630Z,20.21
2017-07-23T08:23:31.901Z,20.3
2017-07-23T08:24:41.858Z,20.22
2017-07-23T08:25:51.813Z,20.33
2017-07-23T08:27:02.089Z,20.4
2017-07-23T08:28:12.055Z,20.42
2017-07-23T08:29:22.024Z,20.5
2017-07-23T08:30:31.669Z,20.56
2017-07-23T08:31:41.948Z,20.63
2017-07-23T08:32:52.226Z,20.68
2017-07-23T08:34:02.530Z,20.75
2017-07-23T08:35:12.503Z,20.75
2017-07-23T08:36:22.777Z,20.82
2017-07-23T08:37:32.743Z,20.88
2017-07-23T08:38:43.023Z,20.95
2017-07-23T08:39:53.309Z,20.95
2017-07-23T08:41:03.589Z,20.92
2017-07-23T08:42:13.549Z,20.96
2017-07-23T08:43:23.511Z,21.01
2017-07-23T08:44:33.790Z,21.05
2017-07-23T08:45:43.753Z,21.08
2017-07-23T08:46:54.033Z,21.1
2017-07-23T08:48:04.306Z,21.17
2017-07-23T08:49:14.269Z,21.08
2017-07-23T08:50:24.233Z,21.22
2017-07-23T08:51:34.199Z,21.22
2017-07-23T08:52:44.474Z,21.33
2017-07-23T08:53:54.754Z,21.33
2017-07-23T08:55:05.057Z,21.3
2017-07-23T08:56:15.333Z,21.38
2017-07-23T08:57:25.293Z,21.37
2017-07-23T08:58:35.579Z,21.5
2017-07-23T08:59:45.869Z,21.51
2017-07-23T09:00:55.836Z,21.48
2017-07-23T09:02:06.115Z,21.53
2017-07-23T09:03:16.073Z,21.48
2017-07-23T09:04:26.032Z,21.58
2017-07-23T09:05:36.014Z,21.62
2017-07-23T09:06:45.969Z,21.6
2017-07-23T09:07:56.246Z,21.69
2017-07-23T09:09:06.207Z,21.75
2017-07-23T09:10:16.188Z,21.72
2017-07-23T09:11:26.458Z,21.84
2017-07-23T09:12:36.422Z,21.89
2017-07-23T09:13:46.080Z,21.78
2017-07-23T09:14:56.356Z,21.89
2017-07-23T09:16:06.634Z,21.94
2017-07-23T09:17:16.920Z,21.85
2017-07-23T09:18:27.232Z,21.88
2017-07-23T09:19:37.536Z,22.06
2017-07-23T09:20:47.178Z,21.99
2017-07-23T09:21:57.460Z,22.01
2017-07-23T09:23:07.741Z,21.99
2017-07-23T09:24:18.015Z,22.04
2017-07-23T09:25:28.291Z,22.03
2017-07-23T09:26:38.593Z,22.12
2017-07-23T09:27:48.872Z,22.15
2017-07-23T09:28:58.832Z,22.22
2017-07-23T09:30:08.835Z,22.19
2017-07-23T09:31:19.112Z,22.22
2017-07-23T09:32:29.391Z,22.31
2017-07-23T09:33:39.356Z,22.25
2017-07-23T09:34:48.999Z,22.33
2017-07-23T09:35:58.962Z,22.46
2017-07-23T09:37:08.969Z,22.36
2017-07-23T09:38:19.244Z,22.51
2017-07-23T09:39:29.529Z,22.56
2017-07-23T09:40:39.809Z,22.56
2017-07-23T09:41:49.456Z,22.52
2017-07-23T09:42:58.805Z,22.43
2017-07-23T09:44:08.769Z,22.43
2017-07-23T09:45:19.044Z,22.44
2017-07-23T09:46:29.004Z,22.49
2017-07-23T09:47:39.284Z,22.51
2017-07-23T09:48:49.565Z,22.47
2017-07-23T09:49:59.530Z,22.56
2017-07-23T09:51:09.176Z,22.52
2017-07-23T09:52:19.451Z,22.56
2017-07-23T09:53:29.412Z,22.61
2017-07-23T09:54:39.691Z,22.65
2017-07-23T09:55:49.651Z,22.73
2017-07-23T09:56:59.613Z,22.67
2017-07-23T09:58:09.891Z,22.78
2017-07-23T09:59:19.850Z,22.91
2017-07-23T10:00:29.817Z,22.93
2017-07-23T10:01:40.108Z,22.89
2017-07-23T10:02:50.385Z,23.01
2017-07-23T10:04:00.345Z,23.01
2017-07-23T10:05:10.309Z,23.01
2017-07-23T10:06:19.962Z,23.06
2017-07-23T10:07:30.240Z,23.1
2017-07-23T10:08:40.530Z,23.14
2017-07-23T10:09:50.814Z,23.11
2017-07-23T10:11:01.103Z,23.2
2017-07-23T10:12:11.067Z,23.21
2017-07-23T10:13:20.718Z,23.29
2017-07-23T10:14:30.688Z,23.33
2017-07-23T10:15:40.965Z,23.36
2017-07-23T10:16:51.253Z,23.45
2017-07-23T10:18:01.535Z,23.56
2017-07-23T10:19:11.813Z,23.58
2017-07-23T10:20:22.090Z,23.7
2017-07-23T10:21:32.081Z,23.73
2017-07-23T10:22:42.350Z,23.81
2017-07-23T10:23:52.314Z,23.81
2017-07-23T10:25:02.594Z,23.71
2017-07-23T10:26:12.873Z,23.81
2017-07-23T10:27:23.146Z,23.81
2017-07-23T10:28:33.106Z,23.91
2017-07-23T10:29:43.068Z,23.99
2017-07-23T10:30:53.345Z,23.99
2017-07-23T10:32:03.633Z,24.01
2017-07-23T10:33:13.911Z,24.11
2017-07-23T10:34:24.194Z,24.21
2017-07-23T10:35:34.156Z,24.26
2017-07-23T10:36:44.126Z,24.34
2017-07-23T10:37:54.122Z,24.48
2017-07-23T10:39:04.105Z,24.55
2017-07-23T10:40:14.384Z,24.51
2017-07-23T10:41:24.351Z,24.69
2017-07-23T10:42:34.629Z,24.79
2017-07-23T10:43:44.600Z,24.89
2017-07-23T10:44:54.882Z,24.94
2017-07-23T10:46:05.157Z,24.99
2017-07-23T10:47:14.822Z,25.14
2017-07-23T10:48:25.097Z,25.18
2017-07-23T10:49:35.376Z,25.12
2017-07-23T10:50:45.646Z,24.99
2017-07-23T10:51:55.919Z,25.06
2017-07-23T10:53:05.895Z,25.14
2017-07-23T10:54:15.858Z,25.12
2017-07-23T10:55:25.514Z,25.15
2017-07-23T10:56:35.792Z,25.15
2017-07-23T10:57:46.099Z,25.14
2017-07-23T10:58:56.065Z,25.26
2017-07-23T11:00:06.345Z,25.21
2017-07-23T11:01:16.313Z,25.25
2017-07-23T11:02:26.278Z,25.25
2017-07-23T11:03:36.559Z,25.29
2017-07-23T11:04:46.213Z,25.33
2017-07-23T11:05:56.505Z,25.33
2017-07-23T11:07:06.818Z,25.41
2017-07-23T11:08:16.780Z,25.4
2017-07-23T11:09:27.057Z,25.46
2017-07-23T11:10:37.022Z,25.52
2017-07-23T11:11:46.990Z,25.62
2017-07-23T11:12:56.951Z,25.7
2017-07-23T11:14:07.232Z,25.67
2017-07-23T11:15:17.510Z,25.67
2017-07-23T11:16:27.788Z,25.74
2017-07-23T11:17:37.752Z,25.7
2017-07-23T11:18:48.048Z,25.76
2017-07-23T11:19:57.697Z,25.83
2017-07-23T11:21:07.983Z,25.85
2017-07-23T11:22:17.948Z,26.01
2017-07-23T11:23:28.229Z,25.99
2017-07-23T11:24:38.197Z,25.91
2017-07-23T11:25:48.474Z,26.11
2017-07-23T11:26:58.437Z,25.99
2017-07-23T11:28:08.403Z,26.07
2017-07-23T11:29:18.368Z,26.15
2017-07-23T11:30:28.341Z,26.27
2017-07-23T11:31:38.622Z,26.36
2017-07-23T11:32:48.904Z,26.42
2017-07-23T11:33:59.189Z,26.63
2017-07-23T11:35:09.157Z,26.79
2017-07-23T11:36:18.804Z,27.16
2017-07-23T11:37:29.078Z,27.47
2017-07-23T11:38:39.041Z,27.95
2017-07-23T11:39:49.015Z,28.49
2017-07-23T11:40:58.979Z,29
2017-07-23T11:42:09.259Z,29.39
2017-07-23T11:43:19.227Z,29.86
2017-07-23T11:44:29.506Z,30.49
2017-07-23T11:45:39.474Z,30.99
2017-07-23T11:46:49.757Z,31.44
2017-07-23T11:48:00.042Z,31.92
2017-07-23T11:49:10.322Z,32.44
2017-07-23T11:50:20.604Z,33.01
2017-07-23T11:51:30.889Z,33.29
2017-07-23T11:52:41.185Z,33.69
2017-07-23T11:53:50.530Z,34.18
2017-07-23T11:55:00.502Z,34.51
2017-07-23T11:56:10.808Z,34.88
2017-07-23T11:57:20.470Z,35.18
2017-07-23T11:58:30.127Z,35.37
2017-07-23T11:59:40.106Z,35.59
2017-07-23T12:00:50.389Z,35.84
2017-07-23T12:02:00.677Z,36.24
2017-07-23T12:03:10.339Z,36.53
2017-07-23T12:04:20.319Z,36.63
2017-07-23T12:05:30.607Z,36.88
2017-07-23T12:06:40.891Z,37.06
2017-07-23T12:07:50.865Z,37.01
2017-07-23T12:09:00.837Z,37.22
2017-07-23T12:10:11.122Z,37.53
2017-07-23T12:11:21.106Z,37.75
2017-07-23T12:12:31.076Z,37.73
2017-07-23T12:13:41.363Z,37.9
2017-07-23T12:14:51.654Z,38
2017-07-23T12:16:01.629Z,38.23
2017-07-23T12:17:11.922Z,38.42
2017-07-23T12:18:22.209Z,38.5
2017-07-23T12:19:32.498Z,38.51
2017-07-23T12:20:42.790Z,38.73
2017-07-23T12:21:53.078Z,38.77
2017-07-23T12:23:03.368Z,39.01
2017-07-23T12:24:13.346Z,39.11
2017-07-23T12:25:23.321Z,39.37
2017-07-23T12:26:33.299Z,39.63
2017-07-23T12:27:43.589Z,39.88
2017-07-23T12:28:53.567Z,39.91
2017-07-23T12:30:03.857Z,40.07
2017-07-23T12:31:13.837Z,40.32
2017-07-23T12:32:23.816Z,40.7
2017-07-23T12:33:33.809Z,40.83
2017-07-23T12:34:44.100Z,41.11
2017-07-23T12:35:54.076Z,41.12
2017-07-23T12:37:04.383Z,41.12
2017-07-23T12:38:14.365Z,41.15
2017-07-23T12:39:24.342Z,41.11
2017-07-23T12:40:34.326Z,41.34
2017-07-23T12:41:44.307Z,41.45
2017-07-23T12:42:54.754Z,41.32
2017-07-23T12:44:04.730Z,41.45
2017-07-23T12:45:14.708Z,41.49
2017-07-23T12:46:24.686Z,41.46
2017-07-23T12:47:34.980Z,41.64
2017-07-23T12:48:45.274Z,41.95
2017-07-23T12:49:55.592Z,42.25
2017-07-23T12:51:05.890Z,42.43
2017-07-23T12:52:16.189Z,42.74
2017-07-23T12:53:26.488Z,42.37
2017-07-23T12:54:36.792Z,42.55
2017-07-23T12:55:46.777Z,42.58
2017-07-23T12:56:57.115Z,42.25
2017-07-23T12:58:07.408Z,41.46
2017-07-23T12:59:17.697Z,40.7
2017-07-23T13:00:27.987Z,39.98
2017-07-23T13:01:38.275Z,39.34
2017-07-23T13:02:48.252Z,38.68
2017-07-23T13:03:58.226Z,38.02
2017-07-23T13:05:08.521Z,37.41
2017-07-23T13:06:17.874Z,36.85
2017-07-23T13:07:27.849Z,36.03
2017-07-23T13:08:38.137Z,35.61
2017-07-23T13:09:48.425Z,35.19
2017-07-23T13:10:58.720Z,34.93
2017-07-23T13:12:08.697Z,34.5
2017-07-23T13:13:18.677Z,34.19
2017-07-23T13:14:28.649Z,33.77
2017-07-23T13:15:38.309Z,33.47
2017-07-23T13:16:48.600Z,33.28
2017-07-23T13:17:58.883Z,33.33
2017-07-23T13:19:09.172Z,33.28
2017-07-23T13:20:19.146Z,33.2
2017-07-23T13:21:29.433Z,33.35
2017-07-23T13:22:39.749Z,33.87
2017-07-23T13:23:50.037Z,34.53
2017-07-23T13:25:00.324Z,35.18
2017-07-23T13:26:10.615Z,35.84
2017-07-23T13:27:20.912Z,36.41
2017-07-23T13:28:31.208Z,37.06
2017-07-23T13:29:41.496Z,37.53
2017-07-23T13:30:51.823Z,38
2017-07-23T13:32:02.111Z,38.41
2017-07-23T13:33:12.408Z,38.75
2017-07-23T13:34:22.400Z,38.13
2017-07-23T13:35:32.691Z,37.67
2017-07-23T13:36:42.359Z,37.01
2017-07-23T13:37:52.655Z,36.62
2017-07-23T13:39:02.626Z,35.87
2017-07-23T13:40:12.911Z,35.47
2017-07-23T13:41:23.195Z,34.76
2017-07-23T13:42:33.488Z,34.33
2017-07-23T13:43:43.797Z,33.89
2017-07-23T13:44:53.768Z,33.51
2017-07-23T13:46:03.741Z,33.31
2017-07-23T13:47:13.712Z,33.03
2017-07-23T13:48:24.010Z,32.75
2017-07-23T13:49:33.354Z,32.42
2017-07-23T13:50:43.325Z,32.07
2017-07-23T13:51:53.616Z,31.82
2017-07-23T13:53:03.902Z,31.79
2017-07-23T13:54:14.208Z,31.45
2017-07-23T13:55:24.492Z,31.22
2017-07-23T13:56:34.468Z,31
2017-07-23T13:57:44.752Z,30.76
2017-07-23T13:58:54.764Z,30.49
2017-07-23T14:00:05.050Z,30.26
2017-07-23T14:01:15.402Z,30.08
2017-07-23T14:02:25.365Z,30.03
2017-07-23T14:03:35.348Z,29.81
2017-07-23T14:04:45.333Z,29.64
2017-07-23T14:05:55.300Z,29.53
2017-07-23T14:07:05.261Z,29.39
2017-07-23T14:08:15.236Z,29.25
2017-07-23T14:09:25.207Z,29.05
2017-07-23T14:10:35.785Z,28.94
2017-07-23T14:11:46.070Z,28.89
2017-07-23T14:12:55.736Z,28.75
2017-07-23T14:14:05.704Z,28.65
2017-07-23T14:15:15.356Z,28.62
2017-07-23T14:16:25.015Z,28.52
2017-07-23T14:17:35.305Z,28.46
2017-07-23T14:18:44.964Z,28.53
2017-07-23T14:19:55.242Z,28.41
2017-07-23T14:21:05.208Z,28.53
2017-07-23T14:22:15.494Z,28.38
2017-07-23T14:23:24.828Z,28.33
2017-07-23T14:24:35.111Z,28.34
2017-07-23T14:25:45.387Z,28.35
2017-07-23T14:26:55.668Z,28.41
2017-07-23T14:28:05.641Z,28.41
2017-07-23T14:29:15.615Z,28.34
2017-07-23T14:30:25.587Z,28.46
2017-07-23T14:31:35.875Z,28.47
2017-07-23T14:32:46.159Z,28.62
2017-07-23T14:33:55.502Z,28.71
2017-07-23T14:35:05.468Z,28.74
2017-07-23T14:36:15.432Z,28.84
2017-07-23T14:37:25.080Z,28.94
2017-07-23T14:38:34.737Z,29.09
2017-07-23T14:39:44.714Z,29.18
2017-07-23T14:40:54.677Z,29.27
2017-07-23T14:42:04.327Z,29.18
2017-07-23T14:43:14.602Z,29.16
2017-07-23T14:44:24.256Z,29.31
2017-07-23T14:45:34.223Z,29.25
2017-07-23T14:46:43.871Z,29.31
2017-07-23T14:47:53.849Z,29.4
2017-07-23T14:49:03.824Z,29.44
2017-07-23T14:50:14.105Z,29.39
2017-07-23T14:51:24.073Z,29.43
2017-07-23T14:52:34.367Z,29.44
2017-07-23T14:53:44.643Z,29.58
2017-07-23T14:54:54.612Z,29.61
2017-07-23T14:56:04.577Z,29.65
2017-07-23T14:57:14.861Z,29.59
2017-07-23T14:58:25.143Z,29.74
2017-07-23T14:59:35.109Z,29.76
2017-07-23T15:00:45.074Z,29.73
2017-07-23T15:01:55.359Z,29.86
2017-07-23T15:03:05.017Z,29.74
2017-07-23T15:04:15.303Z,29.71
2017-07-23T15:05:25.585Z,29.58
2017-07-23T15:06:35.863Z,29.67
2017-07-23T15:07:46.152Z,29.79